Terminal Aerodrome Forecast
Issued by NWS Louisville, KY

Home | Current Version | Previous Version | Text Only | Print | Product List | Glossary On
Versions: 1 2 3 4 5 6 7 8 9 10 11 12 13 14 15 16 17 18
000
FTUS43 KLMK 190500
TAFSDF
TAF
KSDF 190534Z 1906/2012 24003KT 6SM BR FEW080 SCT250
      TEMPO 1908/1911 4SM BR BKN007
     FM191500 24009KT P6SM SCT040
     FM200100 21005KT P6SM SCT040 BKN150=

USA.gov is the U.S. government's official web portal to all federal, state and local government web resources and services.